Time;durP1;ratioP1;P1;durP2;ratioP2;P2;SDS_P1;SDS_P2;PMS_P1;PMS_P2;Temp;Humidity;BMP_temperature;BMP_pressure;BME280_temperature;BME280_humidity;BME280_pressure;Samples;Min_cycle;Max_cycle;Signal;HPM_P1;HPM_P2
2022/12/19 00:01:41;;;;;;;62.97;26.60;;;;;;;1.41;100.00;101715.03;2613479;36;20040;-63
2022/12/19 00:04:14;;;;;;;63.58;26.17;;;;;;;1.43;100.00;101725.56;2613505;36;20038;-62
2022/12/19 00:06:43;;;;;;;60.97;24.88;;;;;;;1.44;100.00;101717.56;2613029;36;20034;-63
2022/12/19 00:09:15;;;;;;;58.00;23.70;;;;;;;1.43;100.00;101712.31;2614367;36;20034;-64
2022/12/19 00:11:43;;;;;;;64.32;25.77;;;;;;;1.49;100.00;101712.13;2615091;36;20423;-62
2022/12/19 00:14:13;;;;;;;68.60;27.25;;;;;;;1.40;100.00;101711.50;2614472;36;20030;-63
2022/12/19 00:16:41;;;;;;;57.05;25.15;;;;;;;1.39;100.00;101717.72;2614460;36;20431;-62
2022/12/19 00:19:12;;;;;;;53.13;23.58;;;;;;;1.54;100.00;101718.94;2613753;36;20034;-62
2022/12/19 00:21:40;;;;;;;61.67;27.42;;;;;;;1.53;100.00;101713.69;2615060;36;20035;-62
2022/12/19 00:24:10;;;;;;;67.05;24.75;;;;;;;1.63;100.00;101725.72;2613993;31;20030;-64
2022/12/19 00:26:41;;;;;;;61.63;25.27;;;;;;;1.52;100.00;101709.34;2614519;36;20034;-62
2022/12/19 00:29:11;;;;;;;61.78;26.20;;;;;;;1.55;100.00;101706.56;2614697;36;20031;-62
2022/12/19 00:31:39;;;;;;;62.45;24.90;;;;;;;1.62;100.00;101681.53;2614265;36;20038;-60
2022/12/19 00:34:08;;;;;;;57.20;25.27;;;;;;;1.53;100.00;101679.22;2614056;31;20041;-62
2022/12/19 00:36:36;;;;;;;61.20;25.42;;;;;;;1.72;100.00;101674.97;2615039;31;20515;-62
2022/12/19 00:39:06;;;;;;;65.75;26.77;;;;;;;1.69;100.00;101685.69;2614555;36;20038;-63
2022/12/19 00:41:36;;;;;;;62.47;25.05;;;;;;;1.76;100.00;101686.31;2615461;36;20424;-62
2022/12/19 00:44:10;;;;;;;64.53;29.00;;;;;;;1.63;100.00;101667.31;2614325;36;20037;-64
2022/12/19 00:46:39;;;;;;;68.10;27.15;;;;;;;1.72;100.00;101658.16;2613847;36;20045;-63
2022/12/19 00:49:08;;;;;;;64.22;27.38;;;;;;;1.74;100.00;101667.78;2614129;36;20030;-63
2022/12/19 00:51:38;;;;;;;62.80;27.38;;;;;;;1.76;100.00;101670.38;2613774;36;20030;-62
2022/12/19 00:54:07;;;;;;;61.80;27.23;;;;;;;1.73;100.00;101668.69;2613154;36;20034;-61
2022/12/19 00:56:37;;;;;;;56.67;26.80;;;;;;;1.73;100.00;101671.34;2614752;31;20023;-61
2022/12/19 00:59:09;;;;;;;59.63;26.88;;;;;;;1.71;100.00;101644.03;2614273;36;20042;-61
2022/12/19 01:01:39;;;;;;;62.50;26.85;;;;;;;1.71;100.00;101627.25;2613549;31;20046;-63
2022/12/19 01:04:10;;;;;;;60.80;25.08;;;;;;;1.74;100.00;101627.97;2613529;31;20578;-62
2022/12/19 01:06:38;;;;;;;53.45;25.48;;;;;;;1.72;100.00;101605.06;2612881;36;20037;-61
2022/12/19 01:09:06;;;;;;;63.78;27.30;;;;;;;1.72;100.00;101605.06;2613247;36;20045;-61
2022/12/19 01:14:21;;;;;;;63.90;27.95;;;;;;;1.77;100.00;101604.88;2613018;36;20034;-62
2022/12/19 01:16:51;;;;;;;56.33;25.77;;;;;;;1.74;100.00;101609.41;2613655;36;20034;-62
2022/12/19 01:19:20;;;;;;;49.58;24.38;;;;;;;1.80;100.00;101608.28;2613878;31;20038;-62
2022/12/19 01:21:49;;;;;;;62.63;24.42;;;;;;;1.83;100.00;101596.69;2614200;36;20089;-61
2022/12/19 01:24:17;;;;;;;63.70;26.40;;;;;;;1.87;100.00;101600.94;2613136;31;20126;-61
2022/12/19 01:26:45;;;;;;;54.17;24.92;;;;;;;1.96;100.00;101599.69;2613957;36;20038;-62
2022/12/19 01:29:14;;;;;;;76.43;29.10;;;;;;;1.86;100.00;101596.56;2614289;36;20038;-63
2022/12/19 01:31:45;;;;;;;59.60;24.40;;;;;;;2.01;100.00;101606.56;2614478;36;20543;-62
2022/12/19 01:34:13;;;;;;;60.00;26.65;;;;;;;2.05;100.00;101608.16;2614710;36;20522;-62
2022/12/19 01:36:41;;;;;;;62.58;25.65;;;;;;;2.07;100.00;101602.78;2615075;31;20029;-61
2022/12/19 01:39:10;;;;;;;60.55;26.52;;;;;;;1.97;100.00;101594.31;2613905;36;20043;-63
2022/12/19 01:41:39;;;;;;;60.60;26.27;;;;;;;2.07;100.00;101577.09;2614457;36;20039;-60
2022/12/19 01:44:09;;;;;;;58.20;26.67;;;;;;;2.25;100.00;101588.75;2614575;31;20054;-60
2022/12/19 01:46:42;;;;;;;63.72;25.52;;;;;;;2.33;100.00;101593.75;2614080;36;20031;-62
2022/12/19 01:49:17;;;;;;;63.85;25.35;;;;;;;2.36;100.00;101584.78;2614159;36;20045;-63
2022/12/19 01:51:49;;;;;;;66.53;27.88;;;;;;;2.36;100.00;101590.09;2613906;36;20041;-62
2022/12/19 01:54:23;;;;;;;58.00;23.90;;;;;;;2.42;100.00;101585.38;2613113;36;20035;-61
2022/12/19 01:56:53;;;;;;;66.47;26.75;;;;;;;2.50;100.00;101592.16;2614520;36;20035;-61
2022/12/19 01:59:28;;;;;;;62.38;27.17;;;;;;;2.57;100.00;101588.31;2613846;36;20485;-62
2022/12/19 02:02:03;;;;;;;69.50;27.65;;;;;;;2.48;100.00;101578.09;2614712;36;20455;-63
2022/12/19 02:04:35;;;;;;;60.03;24.73;;;;;;;2.64;100.00;101579.13;2614745;31;20466;-63
2022/12/19 02:07:06;;;;;;;67.45;27.35;;;;;;;2.59;100.00;101563.41;2614351;31;20030;-63
2022/12/19 02:09:36;;;;;;;63.05;25.85;;;;;;;2.71;100.00;101563.75;2613345;36;20428;-62
2022/12/19 02:12:05;;;;;;;68.75;27.10;;;;;;;2.77;100.00;101553.75;2614008;36;20042;-63
2022/12/19 02:14:33;;;;;;;70.60;27.60;;;;;;;2.75;100.00;101555.63;2614005;36;20035;-62
2022/12/19 02:17:16;;;;;;;68.25;27.05;;;;;;;2.83;100.00;101547.28;2613409;36;20037;-61
2022/12/19 02:20:19;;;;;;;72.85;26.85;;;;;;;2.83;100.00;101538.44;2613657;36;20041;-62
2022/12/19 02:23:10;;;;;;;65.65;26.23;;;;;;;2.87;100.00;101545.34;2613873;36;20050;-63
2022/12/19 02:25:57;;;;;;;65.60;27.05;;;;;;;2.93;100.00;101539.75;2613505;36;20038;-62
2022/12/19 02:28:57;;;;;;;71.60;29.38;;;;;;;3.04;100.00;101540.13;2613882;36;20035;-62
2022/12/19 02:31:32;;;;;;;71.60;28.77;;;;;;;3.04;100.00;101534.78;2613004;36;20041;-64
2022/12/19 02:34:09;;;;;;;71.00;27.30;;;;;;;3.22;100.00;101545.53;2613262;36;20037;-60
2022/12/19 02:36:42;;;;;;;69.60;28.48;;;;;;;3.08;100.00;101535.53;2614093;36;20037;-62
2022/12/19 02:39:13;;;;;;;66.07;26.70;;;;;;;3.29;100.00;101523.00;2614004;36;20034;-62
2022/12/19 02:41:47;;;;;;;67.43;28.65;;;;;;;3.18;100.00;101520.00;2615272;36;20046;-63
2022/12/19 02:44:22;;;;;;;62.95;28.27;;;;;;;3.12;100.00;101513.16;2614022;36;21124;-62
2022/12/19 02:46:54;;;;;;;71.43;29.75;;;;;;;3.21;100.00;101504.75;2615017;36;20130;-60
2022/12/19 02:49:23;;;;;;;73.25;28.20;;;;;;;3.17;100.00;101511.16;2614686;36;21077;-62
2022/12/19 02:51:51;;;;;;;64.40;29.38;;;;;;;3.19;100.00;101493.31;2614645;31;20038;-64
2022/12/19 02:54:20;;;;;;;68.27;28.10;;;;;;;3.20;100.00;101492.38;2614258;36;20034;-62
2022/12/19 02:56:57;;;;;;;73.57;28.43;;;;;;;3.19;100.00;101490.66;2614932;36;20551;-61
2022/12/19 02:59:42;;;;;;;68.03;27.20;;;;;;;3.17;100.00;101481.91;2615347;36;20038;-62
2022/12/19 03:02:24;;;;;;;67.15;29.88;;;;;;;3.18;100.00;101470.34;2614467;36;20031;-62
2022/12/19 03:05:01;;;;;;;62.15;26.77;;;;;;;3.36;100.00;101467.69;2614855;36;20447;-61
2022/12/19 03:07:36;;;;;;;70.85;28.58;;;;;;;3.24;100.00;101471.81;2615164;36;20039;-62
2022/12/19 03:10:15;;;;;;;76.50;28.50;;;;;;;3.42;100.00;101486.91;2614494;36;20050;-62
2022/12/19 03:12:52;;;;;;;73.63;28.65;;;;;;;3.28;100.00;101460.09;2614344;36;20435;-62
2022/12/19 03:15:22;;;;;;;66.97;26.60;;;;;;;3.44;100.00;101476.19;2614821;36;20153;-61
2022/12/19 03:17:54;;;;;;;58.10;26.25;;;;;;;3.45;100.00;101480.56;2614216;36;20053;-62
2022/12/19 03:20:28;;;;;;;69.80;26.40;;;;;;;3.48;100.00;101480.41;2614125;36;20035;-60
2022/12/19 03:22:56;;;;;;;72.97;27.08;;;;;;;3.55;100.00;101462.34;2613975;36;20053;-60
2022/12/19 03:25:27;;;;;;;68.20;26.58;;;;;;;3.50;100.00;101471.44;2615247;36;20061;-61
2022/12/19 03:28:00;;;;;;;69.30;27.20;;;;;;;3.48;100.00;101454.66;2615041;36;20555;-63
2022/12/19 03:30:30;;;;;;;73.38;26.85;;;;;;;3.56;100.00;101461.41;2614105;36;20035;-62
2022/12/19 03:33:03;;;;;;;72.78;27.02;;;;;;;3.60;100.00;101458.50;2615202;36;20037;-61
2022/12/19 03:35:33;;;;;;;67.57;27.00;;;;;;;3.60;100.00;101455.00;2615675;36;20035;-62
2022/12/19 03:38:06;;;;;;;65.75;25.75;;;;;;;3.63;100.00;101473.47;2616119;36;20035;-60
2022/12/19 03:40:36;;;;;;;69.38;28.10;;;;;;;3.71;100.00;101463.31;2615630;36;20031;-60
2022/12/19 03:43:09;;;;;;;73.32;25.40;;;;;;;3.81;100.00;101475.22;2614882;36;20030;-61
2022/12/19 03:45:46;;;;;;;66.80;24.70;;;;;;;3.62;100.00;101466.41;2616209;36;20073;-61
2022/12/19 03:48:22;;;;;;;70.63;28.17;;;;;;;3.68;100.00;101450.13;2615455;36;20027;-62
2022/12/19 03:51:00;;;;;;;66.85;25.92;;;;;;;3.73;100.00;101458.75;2615825;36;20038;-63
2022/12/19 03:53:41;;;;;;;70.90;26.83;;;;;;;3.64;100.00;101445.94;2616320;36;20428;-62
2022/12/19 03:56:17;;;;;;;66.55;26.90;;;;;;;3.75;100.00;101448.88;2615737;31;20034;-60
2022/12/19 03:58:53;;;;;;;60.03;25.92;;;;;;;3.71;100.00;101449.13;2615930;36;20043;-62
2022/12/19 04:01:21;;;;;;;69.75;28.20;;;;;;;3.69;100.00;101441.22;2615642;36;20037;-62
2022/12/19 04:03:53;;;;;;;61.42;23.73;;;;;;;3.87;100.00;101431.41;2615012;36;20030;-62
2022/12/19 04:06:22;;;;;;;56.00;23.05;;;;;;;3.93;100.00;101422.25;2615826;36;20034;-60
2022/12/19 04:08:51;;;;;;;65.30;24.52;;;;;;;3.84;100.00;101435.13;2616097;36;20023;-60
2022/12/19 04:11:22;;;;;;;61.67;26.30;;;;;;;3.97;100.00;101421.16;2615549;36;20566;-61
2022/12/19 04:13:54;;;;;;;60.35;25.48;;;;;;;4.05;100.00;101426.97;2614547;36;20031;-61
2022/12/19 04:16:31;;;;;;;61.55;24.60;;;;;;;4.03;100.00;101420.84;2615036;36;20559;-61
2022/12/19 04:19:08;;;;;;;56.83;22.75;;;;;;;4.09;100.00;101423.19;2615684;31;20042;-62
2022/12/19 04:21:42;;;;;;;50.50;22.73;;;;;;;4.06;100.00;101415.34;2615588;36;20030;-62
2022/12/19 04:24:15;;;;;;;58.83;23.95;;;;;;;4.20;100.00;101418.16;2615093;36;20034;-61
2022/12/19 04:26:49;;;;;;;57.35;23.80;;;;;;;4.24;100.00;101418.00;2615853;36;20041;-62
2022/12/19 04:29:18;;;;;;;42.92;20.92;;;;;;;4.40;100.00;101405.56;2615713;31;20034;-59
2022/12/19 04:31:46;;;;;;;50.78;22.73;;;;;;;4.34;100.00;101395.25;2615400;36;20046;-59
2022/12/19 04:34:21;;;;;;;51.88;21.00;;;;;;;4.36;100.00;101401.38;2614593;36;20064;-59
2022/12/19 04:36:51;;;;;;;43.42;18.35;;;;;;;4.39;100.00;101399.38;2615894;36;20057;-59
2022/12/19 04:39:20;;;;;;;39.42;17.48;;;;;;;4.48;100.00;101398.03;2615306;36;20041;-60
2022/12/19 04:41:48;;;;;;;44.67;17.17;;;;;;;4.57;100.00;101402.84;2615464;36;20034;-60
2022/12/19 04:44:16;;;;;;;38.92;18.00;;;;;;;4.50;100.00;101393.47;2615442;36;20041;-61
2022/12/19 04:46:45;;;;;;;36.15;16.33;;;;;;;4.64;100.00;101386.50;2615593;36;20038;-59
2022/12/19 04:49:13;;;;;;;38.25;16.42;;;;;;;4.73;100.00;101402.88;2614067;36;20030;-60
2022/12/19 04:51:44;;;;;;;38.95;18.73;;;;;;;4.66;100.00;101384.63;2615703;36;20038;-60
2022/12/19 04:54:12;;;;;;;35.33;16.30;;;;;;;4.86;100.00;101389.72;2615661;36;20026;-59
2022/12/19 04:56:41;;;;;;;36.27;16.97;;;;;;;4.83;100.00;101395.22;2615242;36;20045;-61
2022/12/19 04:59:09;;;;;;;36.75;16.02;;;;;;;4.88;100.00;101392.28;2615273;36;20438;-60
2022/12/19 05:01:37;;;;;;;33.63;16.20;;;;;;;4.96;100.00;101386.53;2615470;36;20034;-58
2022/12/19 05:04:06;;;;;;;36.97;15.57;;;;;;;5.11;100.00;101385.66;2614941;36;20107;-58
2022/12/19 05:06:34;;;;;;;34.33;16.10;;;;;;;5.04;100.00;101378.94;2615943;36;20041;-58
2022/12/19 05:09:05;;;;;;;33.70;16.13;;;;;;;5.20;100.00;101390.47;2614906;36;20038;-61
2022/12/19 05:11:34;;;;;;;35.03;16.92;;;;;;;5.08;100.00;101388.50;2616038;36;20045;-60
2022/12/19 05:14:02;;;;;;;33.72;15.98;;;;;;;5.02;100.00;101380.84;2615273;36;20062;-62
2022/12/19 05:16:30;;;;;;;31.48;15.10;;;;;;;5.17;100.00;101374.63;2615457;36;20030;-62
2022/12/19 05:18:59;;;;;;;33.97;16.38;;;;;;;5.09;100.00;101371.53;2614553;36;20027;-62
2022/12/19 05:21:28;;;;;;;39.00;16.35;;;;;;;5.25;100.00;101377.69;2615486;36;20030;-62
2022/12/19 05:23:56;;;;;;;36.22;16.83;;;;;;;5.22;100.00;101369.03;2615358;36;20035;-62
2022/12/19 05:26:27;;;;;;;34.17;17.00;;;;;;;5.26;100.00;101366.09;2615185;36;20046;-62
2022/12/19 05:28:56;;;;;;;38.80;17.73;;;;;;;5.28;100.00;101366.00;2614814;36;20039;-60
2022/12/19 05:31:24;;;;;;;31.25;15.82;;;;;;;5.30;100.00;101358.78;2614798;36;20041;-61
2022/12/19 05:33:52;;;;;;;34.28;15.77;;;;;;;5.33;100.00;101355.94;2614989;36;20624;-63
2022/12/19 05:36:21;;;;;;;33.05;15.82;;;;;;;5.28;100.00;101360.66;2615123;36;20034;-60
2022/12/19 05:38:49;;;;;;;34.47;16.65;;;;;;;5.30;100.00;101349.88;2615556;36;20114;-61
2022/12/19 05:41:19;;;;;;;35.38;17.23;;;;;;;5.34;100.00;101359.44;2615066;31;20038;-62
2022/12/19 05:43:52;;;;;;;30.63;15.70;;;;;;;5.35;100.00;101362.03;2615976;31;20657;-60
2022/12/19 05:46:21;;;;;;;32.03;15.55;;;;;;;5.23;100.00;101350.25;2615011;36;20038;-62
2022/12/19 05:48:50;;;;;;;31.60;15.10;;;;;;;5.44;100.00;101366.81;2615524;31;20031;-61
2022/12/19 05:51:19;;;;;;;34.85;15.70;;;;;;;5.39;100.00;101374.25;2615054;36;20043;-59
2022/12/19 05:53:47;;;;;;;;;;;;;;;5.42;100.00;101365.19;2615432;31;20065;-61
2022/12/19 05:56:18;;;;;;;36.20;15.50;;;;;;;5.49;100.00;101374.56;2615295;36;20001;-62
2022/12/19 05:58:50;;;;;;;31.42;16.02;;;;;;;5.48;100.00;101353.28;2615516;36;20023;-61
2022/12/19 06:01:20;;;;;;;35.65;18.17;;;;;;;5.56;100.00;101367.03;2615502;31;20022;-61
2022/12/19 06:03:52;;;;;;;34.85;15.27;;;;;;;5.64;100.00;101371.91;2615452;36;20038;-60
2022/12/19 06:06:24;;;;;;;28.50;14.95;;;;;;;5.71;100.00;101368.81;2614246;36;20083;-62
2022/12/19 06:08:55;;;;;;;35.42;14.63;;;;;;;5.73;100.00;101371.38;2615333;36;20034;-62
2022/12/19 06:11:23;;;;;;;36.45;16.33;;;;;;;5.65;100.00;101368.31;2616492;32;20122;-60
2022/12/19 06:13:55;;;;;;;35.58;16.60;;;;;;;5.70;100.00;101371.56;2616472;36;20042;-63
2022/12/19 06:16:24;;;;;;;29.95;15.75;;;;;;;5.78;100.00;101371.97;2615827;31;20030;-61
2022/12/19 06:18:52;;;;;;;;;;;;;;;5.83;100.00;101377.91;2615881;36;20038;-60
2022/12/19 06:21:22;;;;;;;32.10;15.45;;;;;;;5.78;100.00;101366.63;2615916;36;19950;-59
2022/12/19 06:23:51;;;;;;;27.30;15.30;;;;;;;5.86;100.00;101367.03;2616256;36;20034;-61
2022/12/19 06:26:21;;;;;;;26.88;13.63;;;;;;;5.99;100.00;101360.94;2615492;31;20042;-61
2022/12/19 06:28:50;;;;;;;32.15;15.70;;;;;;;6.04;100.00;101366.88;2616333;36;20447;-60
2022/12/19 06:31:22;;;;;;;31.38;14.50;;;;;;;6.11;100.00;101361.06;2613059;36;20567;-61
2022/12/19 06:33:51;;;;;;;34.72;15.75;;;;;;;6.01;100.00;101359.91;2615914;36;20038;-60
2022/12/19 06:36:22;;;;;;;34.42;16.02;;;;;;;6.14;100.00;101354.69;2615855;36;20061;-61
2022/12/19 06:38:52;;;;;;;28.25;14.70;;;;;;;6.22;100.00;101347.03;2616183;36;20035;-61
2022/12/19 06:44:02;;;;;;;25.90;14.20;;;;;;;6.24;100.00;101342.47;2614275;36;20130;-62
2022/12/19 06:46:33;;;;;;;27.35;14.60;;;;;;;6.20;100.00;101353.41;2616385;36;20780;-62
2022/12/19 06:49:02;;;;;;;29.40;14.00;;;;;;;6.25;100.00;101356.66;2617720;31;20511;-61
2022/12/19 06:51:30;;;;;;;27.10;14.43;;;;;;;6.34;100.00;101355.22;2615836;36;20340;-62
2022/12/19 06:53:59;;;;;;;28.60;14.63;;;;;;;6.29;100.00;101340.34;2615341;36;20047;-59
2022/12/19 06:56:27;;;;;;;30.10;16.35;;;;;;;6.31;100.00;101349.09;2616206;31;20034;-62
2022/12/19 06:58:56;;;;;;;25.77;13.75;;;;;;;6.40;100.00;101350.34;2615721;36;20034;-62
2022/12/19 07:01:35;;;;;;;25.85;14.35;;;;;;;6.48;100.00;101341.84;2614315;36;20035;-63
2022/12/19 07:04:07;;;;;;;22.85;13.75;;;;;;;6.45;100.00;101336.72;2615413;36;20030;-62
2022/12/19 07:06:35;;;;;;;28.50;14.70;;;;;;;6.58;100.00;101348.34;2614449;36;20041;-58
2022/12/19 07:09:03;;;;;;;27.13;14.68;;;;;;;6.65;100.00;101340.75;2613330;36;20042;-62
2022/12/19 07:11:32;;;;;;;28.33;13.77;;;;;;;6.62;100.00;101352.50;2616197;36;20041;-60
2022/12/19 07:14:00;;;;;;;29.13;14.77;;;;;;;6.76;100.00;101351.63;2616316;36;20559;-62
2022/12/19 07:16:29;;;;;;;27.75;15.18;;;;;;;6.97;100.00;101336.00;2615426;36;20041;-60
2022/12/19 07:18:57;;;;;;;28.48;15.10;;;;;;;6.91;100.00;101344.41;2614937;36;20034;-63
2022/12/19 07:21:28;;;;;;;28.88;13.60;;;;;;;6.95;100.00;101355.78;2615269;36;20065;-61
2022/12/19 07:23:57;;;;;;;28.50;14.60;;;;;;;7.01;100.00;101358.91;2587457;36;20035;-61
2022/12/19 07:26:25;;;;;;;28.73;14.40;;;;;;;7.05;100.00;101367.59;2612089;36;20041;-62
2022/12/19 07:28:54;;;;;;;23.65;13.65;;;;;;;7.21;100.00;101367.44;2615222;31;20046;-62
2022/12/19 07:31:22;;;;;;;26.83;14.50;;;;;;;7.19;100.00;101375.56;2614481;36;20049;-60
2022/12/19 07:33:51;;;;;;;26.55;15.52;;;;;;;7.26;100.00;101368.00;2615440;36;20646;-61
2022/12/19 07:36:19;;;;;;;26.42;14.23;;;;;;;7.46;100.00;101368.50;2614808;31;20029;-62
2022/12/19 07:38:50;;;;;;;29.05;15.18;;;;;;;7.46;100.00;101361.28;2615161;36;20041;-61
2022/12/19 07:41:18;;;;;;;26.55;14.52;;;;;;;7.54;100.00;101366.16;2612938;31;20042;-62
2022/12/19 07:43:47;;;;;;;30.08;14.02;;;;;;;7.54;100.00;101369.69;2615170;36;20035;-59
2022/12/19 07:46:15;;;;;;;30.33;15.27;;;;;;;7.56;100.00;101366.91;2612007;31;20625;-61
2022/12/19 07:48:43;;;;;;;31.42;15.63;;;;;;;7.66;100.00;101375.19;2613137;36;20030;-62
2022/12/19 07:51:12;;;;;;;26.55;15.13;;;;;;;7.76;100.00;101378.06;2615309;36;20034;-61
2022/12/19 07:53:40;;;;;;;28.95;16.27;;;;;;;7.72;100.00;101367.56;2613902;36;20064;-61
2022/12/19 07:56:11;;;;;;;29.27;16.20;;;;;;;7.83;100.00;101377.56;2614339;36;20057;-62
2022/12/19 07:58:40;;;;;;;30.48;16.45;;;;;;;7.79;100.00;101369.81;2613158;31;20039;-62
2022/12/19 08:01:08;;;;;;;27.65;15.60;;;;;;;7.80;100.00;101371.53;2613929;36;20491;-60
2022/12/19 08:03:37;;;;;;;29.48;16.80;;;;;;;7.81;100.00;101373.28;2615329;36;20058;-61
2022/12/19 08:06:07;;;;;;;29.83;16.42;;;;;;;7.94;100.00;101387.53;2615309;36;20037;-63
2022/12/19 08:08:36;;;;;;;27.17;16.10;;;;;;;7.90;100.00;101383.34;2615940;36;20023;-60
2022/12/19 08:11:12;;;;;;;27.65;15.35;;;;;;;8.10;100.00;101365.00;2612489;36;20621;-60
2022/12/19 08:13:41;;;;;;;31.08;15.63;;;;;;;8.23;100.00;101381.97;2613616;36;20034;-61
2022/12/19 08:16:10;;;;;;;30.45;16.40;;;;;;;8.02;100.00;101353.03;2614289;36;20424;-61
2022/12/19 08:18:39;;;;;;;29.98;14.93;;;;;;;8.18;100.00;101358.16;2614845;36;20038;-61
2022/12/19 08:21:09;;;;;;;22.63;13.13;;;;;;;8.10;100.00;101359.66;2615639;36;20035;-63
2022/12/19 08:23:37;;;;;;;27.75;15.18;;;;;;;8.31;100.00;101358.13;2608108;36;20035;-62
2022/12/19 08:26:08;;;;;;;30.52;15.38;;;;;;;8.37;100.00;101368.44;2614746;36;20057;-61
2022/12/19 08:28:39;;;;;;;27.30;15.48;;;;;;;8.27;100.00;101367.38;2615622;36;20566;-61
2022/12/19 08:31:09;;;;;;;27.13;14.90;;;;;;;8.38;100.00;101370.16;2615302;36;20054;-61
2022/12/19 08:33:38;;;;;;;24.48;13.90;;;;;;;8.45;100.00;101375.09;2613440;36;20351;-61
2022/12/19 08:36:07;;;;;;;26.77;14.85;;;;;;;8.45;100.00;101370.63;2615148;31;20423;-60
2022/12/19 08:38:35;;;;;;;24.40;13.77;;;;;;;8.46;100.00;101375.00;2615525;31;20408;-62
2022/12/19 08:41:04;;;;;;;25.33;15.17;;;;;;;8.38;100.00;101370.16;2613391;36;20121;-62
2022/12/19 08:43:32;;;;;;;24.45;13.95;;;;;;;8.41;100.00;101364.56;2614296;36;20034;-61
2022/12/19 08:46:03;;;;;;;25.53;14.13;;;;;;;8.51;100.00;101378.22;2615473;36;20511;-62
2022/12/19 08:48:33;;;;;;;29.65;15.05;;;;;;;8.46;100.00;101376.81;2613786;32;20558;-60
2022/12/19 08:51:03;;;;;;;25.63;13.40;;;;;;;8.57;100.00;101390.34;2615486;36;20039;-61
2022/12/19 08:53:34;;;;;;;22.65;13.27;;;;;;;8.34;100.00;101383.91;2615464;36;20030;-63
2022/12/19 08:56:05;;;;;;;25.10;12.18;;;;;;;8.52;100.00;101398.69;2614767;36;20458;-59
2022/12/19 08:58:33;;;;;;;21.15;12.20;;;;;;;8.44;100.00;101384.09;2615325;31;20459;-62
2022/12/19 09:01:07;;;;;;;22.13;12.98;;;;;;;8.62;100.00;101401.59;2614827;36;20035;-60
2022/12/19 09:03:36;;;;;;;21.23;13.00;;;;;;;8.45;100.00;101392.06;2614417;36;20035;-60
2022/12/19 09:06:07;;;;;;;22.50;11.93;;;;;;;8.49;100.00;101385.50;2615312;36;20039;-61
2022/12/19 09:08:37;;;;;;;24.33;14.38;;;;;;;8.63;100.00;101387.22;2615551;36;20452;-59
2022/12/19 09:11:07;;;;;;;19.23;11.18;;;;;;;8.53;100.00;101383.47;2615842;36;20065;-59
2022/12/19 09:13:37;;;;;;;20.67;12.88;;;;;;;8.58;100.00;101375.94;2614649;36;20031;-61
2022/12/19 09:16:10;;;;;;;21.05;12.40;;;;;;;8.61;100.00;101391.81;2616012;31;20719;-61
2022/12/19 09:18:39;;;;;;;21.27;11.52;;;;;;;8.61;100.00;101378.41;2615095;36;20041;-61
2022/12/19 09:21:08;;;;;;;24.23;13.23;;;;;;;8.53;100.00;101391.53;2615473;36;20026;-61
2022/12/19 09:23:37;;;;;;;21.38;11.80;;;;;;;8.69;100.00;101397.50;2609904;36;20030;-60
2022/12/19 09:26:07;;;;;;;22.50;11.07;;;;;;;8.55;100.00;101389.56;2614355;36;20034;-58
2022/12/19 09:28:37;;;;;;;20.83;11.55;;;;;;;8.59;100.00;101394.59;2615400;36;20447;-59
2022/12/19 09:31:12;;;;;;;20.95;12.15;;;;;;;8.61;100.00;101404.38;2614528;36;20041;-59
2022/12/19 09:33:40;;;;;;;20.05;12.18;;;;;;;8.66;100.00;101395.03;2615829;36;20499;-58
2022/12/19 09:36:14;;;;;;;21.27;11.77;;;;;;;8.80;100.00;101406.59;2614136;36;20037;-61
2022/12/19 09:38:43;;;;;;;21.80;11.38;;;;;;;8.67;100.00;101396.75;2615101;31;20035;-61
2022/12/19 09:41:47;;;;;;;19.08;10.88;;;;;;;8.65;100.00;101414.78;2614204;36;20034;-60
2022/12/19 09:44:29;;;;;;;21.08;12.05;;;;;;;8.69;100.00;101400.19;2614807;36;20435;-61
2022/12/19 09:47:02;;;;;;;18.80;11.50;;;;;;;8.66;100.00;101403.09;2614995;36;20170;-60
2022/12/19 09:49:38;;;;;;;20.50;10.90;;;;;;;8.68;100.00;101403.81;2614870;36;20034;-60
2022/12/19 09:52:12;;;;;;;18.83;11.18;;;;;;;8.72;100.00;101410.69;2615362;31;20034;-61
2022/12/19 09:54:45;;;;;;;21.42;11.38;;;;;;;8.64;100.00;101407.69;2615122;36;20041;-59
2022/12/19 09:57:19;;;;;;;18.83;10.85;;;;;;;8.77;100.00;101400.50;2614343;36;20031;-60
2022/12/19 09:59:52;;;;;;;16.45;10.60;;;;;;;8.59;100.00;101399.97;2615354;31;20081;-62
2022/12/19 10:02:42;;;;;;;18.75;10.50;;;;;;;8.73;100.00;101408.84;2613911;36;20042;-61
2022/12/19 10:05:19;;;;;;;20.90;11.00;;;;;;;8.70;100.00;101399.22;2615208;36;20034;-60
2022/12/19 10:07:47;;;;;;;19.52;11.10;;;;;;;8.66;100.00;101411.13;2614770;36;20030;-61
2022/12/19 10:10:18;;;;;;;14.70;10.18;;;;;;;8.82;100.00;101404.66;2614583;36;20042;-59
2022/12/19 10:13:06;;;;;;;17.73;10.40;;;;;;;8.78;100.00;101398.66;2613942;36;20460;-62
2022/12/19 10:15:46;;;;;;;19.15;11.20;;;;;;;8.70;100.00;101407.28;2612962;36;20041;-60
2022/12/19 10:18:41;;;;;;;22.00;10.70;;;;;;;8.67;100.00;101401.25;2613209;36;20042;-60
2022/12/19 10:21:14;;;;;;;17.00;10.23;;;;;;;8.65;100.00;101395.16;2615620;36;20645;-61
2022/12/19 10:23:59;;;;;;;17.38;8.68;;;;;;;8.87;100.00;101399.81;2606732;36;20550;-61
2022/12/19 10:26:35;;;;;;;17.35;10.75;;;;;;;8.83;100.00;101403.69;2611882;36;20464;-58
2022/12/19 10:29:17;;;;;;;17.95;9.93;;;;;;;8.93;100.00;101407.41;2614054;36;20094;-59
2022/12/19 10:31:56;;;;;;;18.52;9.85;;;;;;;8.73;100.00;101412.41;2614585;36;20550;-60
2022/12/19 10:34:31;;;;;;;;;;;;;;;8.96;100.00;101403.66;2613948;36;20045;-60
2022/12/19 10:37:03;;;;;;;19.45;9.85;;;;;;;8.96;100.00;101401.81;2614160;36;19946;-61
2022/12/19 10:39:37;;;;;;;17.45;9.85;;;;;;;9.10;100.00;101401.69;2614183;31;20038;-59
2022/12/19 10:42:15;;;;;;;18.80;10.07;;;;;;;9.03;100.00;101400.41;2614283;36;20027;-59
2022/12/19 10:44:47;;;;;;;20.85;10.07;;;;;;;9.07;100.00;101399.22;2615368;31;20046;-62
2022/12/19 10:47:18;;;;;;;18.55;10.32;;;;;;;9.05;100.00;101395.78;2615268;36;20038;-61
2022/12/19 10:49:49;;;;;;;20.48;10.18;;;;;;;9.11;100.00;101403.41;2615013;36;20034;-62
2022/12/19 10:52:50;;;;;;;17.73;10.23;;;;;;;9.17;100.00;101391.34;2614834;36;20427;-60
2022/12/19 10:55:35;;;;;;;17.17;9.98;;;;;;;9.33;100.00;101399.09;2613652;36;20046;-60
2022/12/19 10:58:23;;;;;;;17.63;9.32;;;;;;;9.35;100.00;101407.91;2614657;36;20586;-60
2022/12/19 11:01:03;;;;;;;17.20;8.70;;;;;;;9.29;100.00;101397.63;2615569;36;20042;-60
2022/12/19 11:03:32;;;;;;;15.57;9.55;;;;;;;9.47;100.00;101401.59;2615042;36;20038;-60
2022/12/19 11:06:05;;;;;;;15.48;9.35;;;;;;;9.36;100.00;101403.38;2615068;36;20099;-59
2022/12/19 11:08:35;;;;;;;16.85;8.90;;;;;;;9.34;100.00;101406.19;2615145;36;20034;-60
2022/12/19 11:11:15;;;;;;;17.10;8.50;;;;;;;9.41;100.00;101391.31;2615535;36;20041;-60
2022/12/19 11:13:45;;;;;;;;;;;;;;;9.40;100.00;101397.66;2614936;36;20038;-59
2022/12/19 11:16:15;;;;;;;15.73;9.13;;;;;;;9.43;100.00;101394.75;2614992;36;19950;-60
2022/12/19 11:18:46;;;;;;;18.05;9.35;;;;;;;9.23;100.00;101388.19;2613788;36;20034;-59
2022/12/19 11:21:27;;;;;;;12.50;7.53;;;;;;;9.34;100.00;101383.84;2616226;36;20412;-61
2022/12/19 11:23:58;;;;;;;14.65;8.38;;;;;;;9.33;100.00;101368.69;2613369;36;20434;-61
2022/12/19 11:26:36;;;;;;;14.98;7.63;;;;;;;9.28;100.00;101371.72;2614457;36;20031;-59
2022/12/19 11:29:18;;;;;;;12.45;8.25;;;;;;;9.33;100.00;101364.16;2614635;36;20471;-60
2022/12/19 11:31:48;;;;;;;19.80;8.70;;;;;;;9.37;100.00;101368.34;2615443;36;20022;-61
2022/12/19 11:34:22;;;;;;;14.60;8.50;;;;;;;9.34;100.00;101373.09;2614574;31;20062;-61
2022/12/19 11:36:57;;;;;;;15.77;8.38;;;;;;;9.33;100.00;101358.81;2614899;36;20042;-62
2022/12/19 11:39:34;;;;;;;12.30;7.53;;;;;;;9.40;100.00;101368.13;2613660;36;20619;-62